Terminal Aerodrome Forecast
Issued by NWS

Home | Current Version | Previous Version | Text Only | Print | Product List | Glossary Off
Versions: 1 2 3 4 5 6 7 8 9 10 11 12 13 14 15 16 17 18 19 20 21 22 23 24

000
FTUS43 KGRB 221500 AAB
TAFCWA
TAF AMD
KCWA 221557Z 2216/2312 11005KT 2SM HZ OVC004
      TEMPO 2216/2218 5SM BR BKN006
     FM221800 13005KT 6SM HZ OVC008
     FM222000 11004KT 6SM HZ BKN015 BKN030
     FM230200 VRB03KT 4SM BR BKN015
     FM230400 VRB03KT 1SM BR OVC007
     FM230700 VRB03KT 1/2SM FG VV004=

USA.gov is the U.S. government's official web portal to all federal, state and local government web resources and services.